EPLB

Lublin Airport

Lublin, Poland
METAR EPLB 251500Z 31011KT 9999 FEW040 10/03 Q1029
Observed Flight Rules
Sep-25 @ 15:00 UTC (34 minutes ago) Visual Flight Rules
Wind Visibility Clouds
310° at 11 knots 10,000+ meters
  • Few at 4,000' AGL
Temperatures Readings
Current 10°C / 50°F
Dewpoint 3°C / 37°F
Humidity 62%
Altimeter 30.38" Hg
Pressure 1029 hPa
Elevation 206
METAR EPLB 251500Z 31011KT 9999 FEW040 10/03 Q1029
Observed Flight Rules
Sep-25 @ 15:00 UTC
(34 minutes ago)
VFR
Wind Visibility
310° at 11 knots 10,000+ meters
Clouds
  • Few at 4,000' AGL
Temperature Dewpoint
10°C / 50°F 3°C / 37°F
Humidity Altimeter Pressure
62% 30.38" Hg 1029 hPa